sensor_id;sensor_type;location;lat;lon;timestamp;P1;P2;P0
21358;PMS7003;13506;50.852;20.632;2023-11-18T00:00:07;17.60;14.40;6.40
21358;PMS7003;13506;50.852;20.632;2023-11-18T00:03:00;21.40;19.20;10.20
21358;PMS7003;13506;50.852;20.632;2023-11-18T00:05:29;16.20;15.00;7.00
21358;PMS7003;13506;50.852;20.632;2023-11-18T00:07:57;17.80;17.40;9.60
21358;PMS7003;13506;50.852;20.632;2023-11-18T00:10:25;15.60;14.40;8.20
21358;PMS7003;13506;50.852;20.632;2023-11-18T00:12:56;14.00;13.40;7.00
21358;PMS7003;13506;50.852;20.632;2023-11-18T00:15:24;18.60;14.60;5.40
21358;PMS7003;13506;50.852;20.632;2023-11-18T00:17:53;13.80;13.80;7.00
21358;PMS7003;13506;50.852;20.632;2023-11-18T00:20:23;16.00;15.20;7.80
21358;PMS7003;13506;50.852;20.632;2023-11-18T00:22:52;8.80;8.80;4.20
21358;PMS7003;13506;50.852;20.632;2023-11-18T00:25:20;14.40;10.00;4.20
21358;PMS7003;13506;50.852;20.632;2023-11-18T00:27:49;16.40;13.00;6.80
21358;PMS7003;13506;50.852;20.632;2023-11-18T00:30:17;10.00;10.00;4.80
21358;PMS7003;13506;50.852;20.632;2023-11-18T00:32:45;15.60;13.20;7.00
21358;PMS7003;13506;50.852;20.632;2023-11-18T00:35:14;11.40;10.00;4.00
21358;PMS7003;13506;50.852;20.632;2023-11-18T00:37:45;11.60;10.20;4.80
21358;PMS7003;13506;50.852;20.632;2023-11-18T00:40:13;14.60;13.20;7.00
21358;PMS7003;13506;50.852;20.632;2023-11-18T00:42:45;9.60;9.40;4.00
21358;PMS7003;13506;50.852;20.632;2023-11-18T00:45:12;17.40;15.20;6.00
21358;PMS7003;13506;50.852;20.632;2023-11-18T00:47:41;13.00;12.40;6.60
21358;PMS7003;13506;50.852;20.632;2023-11-18T00:50:09;16.60;11.80;5.80
21358;PMS7003;13506;50.852;20.632;2023-11-18T00:52:37;11.60;11.40;6.60
21358;PMS7003;13506;50.852;20.632;2023-11-18T00:55:09;13.80;12.80;5.60
21358;PMS7003;13506;50.852;20.632;2023-11-18T00:57:37;10.80;10.80;5.60
21358;PMS7003;13506;50.852;20.632;2023-11-18T01:00:06;10.20;9.40;5.20
21358;PMS7003;13506;50.852;20.632;2023-11-18T01:02:40;13.00;11.80;6.40
21358;PMS7003;13506;50.852;20.632;2023-11-18T01:05:09;13.40;12.60;5.60
21358;PMS7003;13506;50.852;20.632;2023-11-18T01:07:39;13.00;10.40;4.60
21358;PMS7003;13506;50.852;20.632;2023-11-18T01:10:09;11.80;10.00;4.80
21358;PMS7003;13506;50.852;20.632;2023-11-18T01:12:37;8.80;8.80;5.60
21358;PMS7003;13506;50.852;20.632;2023-11-18T01:15:06;11.60;10.60;3.20
21358;PMS7003;13506;50.852;20.632;2023-11-18T01:17:36;17.60;12.60;6.60
21358;PMS7003;13506;50.852;20.632;2023-11-18T01:20:05;11.60;10.00;4.40
21358;PMS7003;13506;50.852;20.632;2023-11-18T01:22:36;10.80;10.60;7.00
21358;PMS7003;13506;50.852;20.632;2023-11-18T01:25:05;12.80;7.80;4.00
21358;PMS7003;13506;50.852;20.632;2023-11-18T01:27:36;9.80;9.00;4.40
21358;PMS7003;13506;50.852;20.632;2023-11-18T01:30:06;12.40;10.40;5.80
21358;PMS7003;13506;50.852;20.632;2023-11-18T01:32:37;10.20;9.00;4.40
21358;PMS7003;13506;50.852;20.632;2023-11-18T01:35:06;10.80;9.80;4.00
21358;PMS7003;13506;50.852;20.632;2023-11-18T01:37:36;9.80;9.80;3.00
21358;PMS7003;13506;50.852;20.632;2023-11-18T01:40:05;8.80;8.80;2.80
21358;PMS7003;13506;50.852;20.632;2023-11-18T01:42:36;8.00;8.00;4.00
21358;PMS7003;13506;50.852;20.632;2023-11-18T01:45:04;10.40;10.40;3.80
21358;PMS7003;13506;50.852;20.632;2023-11-18T01:47:37;9.60;7.00;3.80
21358;PMS7003;13506;50.852;20.632;2023-11-18T01:50:07;9.80;9.60;4.00
21358;PMS7003;13506;50.852;20.632;2023-11-18T01:52:37;12.40;10.00;4.00
21358;PMS7003;13506;50.852;20.632;2023-11-18T01:55:08;6.60;6.60;3.60
21358;PMS7003;13506;50.852;20.632;2023-11-18T01:57:37;7.60;7.60;4.00
21358;PMS7003;13506;50.852;20.632;2023-11-18T02:00:09;12.20;10.00;3.40
21358;PMS7003;13506;50.852;20.632;2023-11-18T02:02:42;10.60;9.80;3.60
21358;PMS7003;13506;50.852;20.632;2023-11-18T02:05:11;10.60;9.80;4.00
21358;PMS7003;13506;50.852;20.632;2023-11-18T02:07:39;8.40;7.00;3.20
21358;PMS7003;13506;50.852;20.632;2023-11-18T02:10:07;9.60;9.60;3.60
21358;PMS7003;13506;50.852;20.632;2023-11-18T02:12:41;8.80;7.00;3.40
21358;PMS7003;13506;50.852;20.632;2023-11-18T02:15:14;10.00;7.00;2.80
21358;PMS7003;13506;50.852;20.632;2023-11-18T02:17:43;9.40;9.00;3.80
21358;PMS7003;13506;50.852;20.632;2023-11-18T02:20:14;6.00;6.00;2.80
21358;PMS7003;13506;50.852;20.632;2023-11-18T02:22:46;13.20;9.80;5.40
21358;PMS7003;13506;50.852;20.632;2023-11-18T02:25:16;8.00;6.40;2.40
21358;PMS7003;13506;50.852;20.632;2023-11-18T02:27:47;6.80;6.60;3.20
21358;PMS7003;13506;50.852;20.632;2023-11-18T02:30:17;9.00;9.00;4.40
21358;PMS7003;13506;50.852;20.632;2023-11-18T02:32:50;11.20;10.00;3.60
21358;PMS7003;13506;50.852;20.632;2023-11-18T02:35:29;9.40;9.40;4.00
21358;PMS7003;13506;50.852;20.632;2023-11-18T02:38:03;11.00;10.00;3.60
21358;PMS7003;13506;50.852;20.632;2023-11-18T02:40:33;6.60;6.60;2.80
21358;PMS7003;13506;50.852;20.632;2023-11-18T02:43:06;8.20;7.40;3.20
21358;PMS7003;13506;50.852;20.632;2023-11-18T02:45:36;9.40;9.00;3.00
21358;PMS7003;13506;50.852;20.632;2023-11-18T02:48:05;7.00;7.00;2.60
21358;PMS7003;13506;50.852;20.632;2023-11-18T02:50:34;11.20;9.00;4.00
21358;PMS7003;13506;50.852;20.632;2023-11-18T02:53:04;8.60;7.60;3.60
21358;PMS7003;13506;50.852;20.632;2023-11-18T02:55:32;8.80;7.20;1.60
21358;PMS7003;13506;50.852;20.632;2023-11-18T02:58:01;8.60;7.00;3.00
21358;PMS7003;13506;50.852;20.632;2023-11-18T03:00:30;7.60;7.60;2.40
21358;PMS7003;13506;50.852;20.632;2023-11-18T03:02:58;6.00;6.00;2.80
21358;PMS7003;13506;50.852;20.632;2023-11-18T03:05:28;8.20;8.20;2.80
21358;PMS7003;13506;50.852;20.632;2023-11-18T03:07:57;7.20;7.20;2.80
21358;PMS7003;13506;50.852;20.632;2023-11-18T03:10:25;7.80;7.00;2.60
21358;PMS7003;13506;50.852;20.632;2023-11-18T03:12:55;9.20;7.00;3.60
21358;PMS7003;13506;50.852;20.632;2023-11-18T03:15:23;7.80;6.00;2.60
21358;PMS7003;13506;50.852;20.632;2023-11-18T03:17:53;9.00;7.00;2.80
21358;PMS7003;13506;50.852;20.632;2023-11-18T03:20:21;7.00;7.00;2.60
21358;PMS7003;13506;50.852;20.632;2023-11-18T03:22:51;7.40;6.40;2.80
21358;PMS7003;13506;50.852;20.632;2023-11-18T03:25:20;7.20;7.20;2.80
21358;PMS7003;13506;50.852;20.632;2023-11-18T03:27:48;7.80;7.80;2.80
21358;PMS7003;13506;50.852;20.632;2023-11-18T03:30:16;10.20;7.40;3.40
21358;PMS7003;13506;50.852;20.632;2023-11-18T03:32:46;7.80;7.00;3.40
21358;PMS7003;13506;50.852;20.632;2023-11-18T03:35:15;6.80;6.80;3.80
21358;PMS7003;13506;50.852;20.632;2023-11-18T03:37:44;9.80;8.60;4.00
21358;PMS7003;13506;50.852;20.632;2023-11-18T03:40:12;6.80;6.80;3.00
21358;PMS7003;13506;50.852;20.632;2023-11-18T03:42:41;7.40;7.40;4.00
21358;PMS7003;13506;50.852;20.632;2023-11-18T03:45:12;9.60;7.20;3.20
21358;PMS7003;13506;50.852;20.632;2023-11-18T03:47:44;9.80;8.60;4.00
21358;PMS7003;13506;50.852;20.632;2023-11-18T03:50:32;7.40;7.40;3.80
21358;PMS7003;13506;50.852;20.632;2023-11-18T03:53:03;6.80;6.80;3.00
21358;PMS7003;13506;50.852;20.632;2023-11-18T03:55:31;10.80;9.20;4.00
21358;PMS7003;13506;50.852;20.632;2023-11-18T03:58:00;10.80;8.60;3.00
21358;PMS7003;13506;50.852;20.632;2023-11-18T04:00:28;8.20;7.40;3.00
21358;PMS7003;13506;50.852;20.632;2023-11-18T04:02:57;12.60;11.20;4.20
21358;PMS7003;13506;50.852;20.632;2023-11-18T04:05:25;8.20;7.00;3.80
21358;PMS7003;13506;50.852;20.632;2023-11-18T04:07:56;9.40;8.20;3.80
21358;PMS7003;13506;50.852;20.632;2023-11-18T04:10:24;9.80;8.20;4.00
21358;PMS7003;13506;50.852;20.632;2023-11-18T04:12:53;8.40;7.20;3.40
21358;PMS7003;13506;50.852;20.632;2023-11-18T04:15:22;9.80;7.60;3.40
21358;PMS7003;13506;50.852;20.632;2023-11-18T04:17:52;11.00;11.00;5.40
21358;PMS7003;13506;50.852;20.632;2023-11-18T04:20:21;10.20;9.80;5.80
21358;PMS7003;13506;50.852;20.632;2023-11-18T04:22:49;11.20;10.80;6.00
21358;PMS7003;13506;50.852;20.632;2023-11-18T04:25:18;10.80;10.00;4.80
21358;PMS7003;13506;50.852;20.632;2023-11-18T04:27:47;9.80;9.80;5.20
21358;PMS7003;13506;50.852;20.632;2023-11-18T04:30:15;11.20;10.00;5.80
21358;PMS7003;13506;50.852;20.632;2023-11-18T04:32:45;12.00;9.60;4.20
21358;PMS7003;13506;50.852;20.632;2023-11-18T04:35:13;10.00;10.00;4.80
21358;PMS7003;13506;50.852;20.632;2023-11-18T04:37:42;14.40;9.20;5.00
21358;PMS7003;13506;50.852;20.632;2023-11-18T04:40:11;12.80;11.00;5.80
21358;PMS7003;13506;50.852;20.632;2023-11-18T04:42:42;13.20;10.20;5.80
21358;PMS7003;13506;50.852;20.632;2023-11-18T04:45:11;10.20;10.20;4.80
21358;PMS7003;13506;50.852;20.632;2023-11-18T04:47:40;13.00;13.00;6.20
21358;PMS7003;13506;50.852;20.632;2023-11-18T04:50:10;15.80;12.40;5.80
21358;PMS7003;13506;50.852;20.632;2023-11-18T04:52:38;16.00;13.00;6.40
21358;PMS7003;13506;50.852;20.632;2023-11-18T04:55:07;13.40;9.40;4.40
21358;PMS7003;13506;50.852;20.632;2023-11-18T04:57:38;13.00;10.00;4.00
21358;PMS7003;13506;50.852;20.632;2023-11-18T05:00:08;13.20;13.20;6.40
21358;PMS7003;13506;50.852;20.632;2023-11-18T05:02:37;11.60;11.20;4.80
21358;PMS7003;13506;50.852;20.632;2023-11-18T05:05:06;13.40;12.40;5.80
21358;PMS7003;13506;50.852;20.632;2023-11-18T05:07:34;13.20;12.80;7.00
21358;PMS7003;13506;50.852;20.632;2023-11-18T05:10:04;11.60;9.20;6.00
21358;PMS7003;13506;50.852;20.632;2023-11-18T05:12:34;16.60;10.20;4.80
21358;PMS7003;13506;50.852;20.632;2023-11-18T05:15:02;15.40;12.60;5.80
21358;PMS7003;13506;50.852;20.632;2023-11-18T05:17:34;14.80;12.40;5.80
21358;PMS7003;13506;50.852;20.632;2023-11-18T05:20:03;10.40;9.20;5.80
21358;PMS7003;13506;50.852;20.632;2023-11-18T05:22:34;14.00;10.80;5.20
21358;PMS7003;13506;50.852;20.632;2023-11-18T05:25:04;14.40;14.40;7.80
21358;PMS7003;13506;50.852;20.632;2023-11-18T05:27:34;16.20;13.00;7.40
21358;PMS7003;13506;50.852;20.632;2023-11-18T05:30:02;18.40;13.60;6.20
21358;PMS7003;13506;50.852;20.632;2023-11-18T05:32:31;14.40;13.00;7.20
21358;PMS7003;13506;50.852;20.632;2023-11-18T05:35:00;23.00;18.80;10.40
21358;PMS7003;13506;50.852;20.632;2023-11-18T05:37:30;22.00;19.00;10.80
21358;PMS7003;13506;50.852;20.632;2023-11-18T05:40:02;14.80;14.80;7.00
21358;PMS7003;13506;50.852;20.632;2023-11-18T05:42:32;18.20;14.60;6.40
21358;PMS7003;13506;50.852;20.632;2023-11-18T05:45:02;15.60;13.00;7.00
21358;PMS7003;13506;50.852;20.632;2023-11-18T05:47:32;15.40;14.20;7.60
21358;PMS7003;13506;50.852;20.632;2023-11-18T05:50:02;13.00;12.80;6.60
21358;PMS7003;13506;50.852;20.632;2023-11-18T05:52:31;21.00;18.00;8.80
21358;PMS7003;13506;50.852;20.632;2023-11-18T05:54:59;16.80;13.00;7.00
21358;PMS7003;13506;50.852;20.632;2023-11-18T05:57:28;18.60;18.20;9.80
21358;PMS7003;13506;50.852;20.632;2023-11-18T05:59:56;15.20;14.80;9.40
21358;PMS7003;13506;50.852;20.632;2023-11-18T06:02:24;20.40;16.00;7.00
21358;PMS7003;13506;50.852;20.632;2023-11-18T06:04:52;25.80;14.60;8.20
21358;PMS7003;13506;50.852;20.632;2023-11-18T06:07:21;20.40;17.40;9.60
21358;PMS7003;13506;50.852;20.632;2023-11-18T06:09:51;23.60;17.20;7.40
21358;PMS7003;13506;50.852;20.632;2023-11-18T06:12:19;18.80;17.20;12.00
21358;PMS7003;13506;50.852;20.632;2023-11-18T06:14:48;17.60;17.60;10.00
21358;PMS7003;13506;50.852;20.632;2023-11-18T06:17:17;12.60;12.60;6.60
21358;PMS7003;13506;50.852;20.632;2023-11-18T06:19:45;16.20;14.20;6.60
21358;PMS7003;13506;50.852;20.632;2023-11-18T06:22:14;16.20;13.80;7.00
21358;PMS7003;13506;50.852;20.632;2023-11-18T06:24:43;17.40;16.20;8.20
21358;PMS7003;13506;50.852;20.632;2023-11-18T06:27:11;12.40;12.40;7.00
21358;PMS7003;13506;50.852;20.632;2023-11-18T06:29:41;16.60;15.80;8.40
21358;PMS7003;13506;50.852;20.632;2023-11-18T06:32:10;13.80;11.80;7.00
21358;PMS7003;13506;50.852;20.632;2023-11-18T06:34:39;16.40;14.80;8.80
21358;PMS7003;13506;50.852;20.632;2023-11-18T06:37:07;18.40;15.20;8.20
21358;PMS7003;13506;50.852;20.632;2023-11-18T06:39:35;13.60;13.20;6.20
21358;PMS7003;13506;50.852;20.632;2023-11-18T06:42:11;13.40;13.40;6.80
21358;PMS7003;13506;50.852;20.632;2023-11-18T06:44:39;15.40;13.00;7.40
21358;PMS7003;13506;50.852;20.632;2023-11-18T06:47:08;13.80;12.40;6.00
21358;PMS7003;13506;50.852;20.632;2023-11-18T06:49:38;22.60;19.60;9.60
21358;PMS7003;13506;50.852;20.632;2023-11-18T06:52:06;17.80;15.40;7.40
21358;PMS7003;13506;50.852;20.632;2023-11-18T06:54:37;14.40;14.40;7.80
21358;PMS7003;13506;50.852;20.632;2023-11-18T06:57:08;16.00;13.60;7.20
21358;PMS7003;13506;50.852;20.632;2023-11-18T06:59:37;14.20;13.40;7.80
21358;PMS7003;13506;50.852;20.632;2023-11-18T07:02:07;12.80;12.80;5.20
21358;PMS7003;13506;50.852;20.632;2023-11-18T07:04:35;18.40;15.80;8.00
21358;PMS7003;13506;50.852;20.632;2023-11-18T07:07:04;11.20;11.20;7.00
21358;PMS7003;13506;50.852;20.632;2023-11-18T07:09:34;17.80;12.40;6.80
21358;PMS7003;13506;50.852;20.632;2023-11-18T07:12:02;15.20;13.80;7.00
21358;PMS7003;13506;50.852;20.632;2023-11-18T07:14:32;12.60;12.00;7.00
21358;PMS7003;13506;50.852;20.632;2023-11-18T07:17:00;16.60;12.80;8.20
21358;PMS7003;13506;50.852;20.632;2023-11-18T07:19:30;15.20;12.80;7.20
21358;PMS7003;13506;50.852;20.632;2023-11-18T07:21:59;18.80;15.60;9.60
21358;PMS7003;13506;50.852;20.632;2023-11-18T07:24:28;17.80;17.80;9.20
21358;PMS7003;13506;50.852;20.632;2023-11-18T07:26:56;20.00;15.60;8.40
21358;PMS7003;13506;50.852;20.632;2023-11-18T07:29:25;16.20;16.20;9.20
21358;PMS7003;13506;50.852;20.632;2023-11-18T07:31:55;16.20;13.80;8.80
21358;PMS7003;13506;50.852;20.632;2023-11-18T07:34:22;19.20;17.80;8.80
21358;PMS7003;13506;50.852;20.632;2023-11-18T07:36:51;18.00;15.80;9.20
21358;PMS7003;13506;50.852;20.632;2023-11-18T07:39:21;17.60;16.20;9.60
21358;PMS7003;13506;50.852;20.632;2023-11-18T07:42:10;15.80;13.40;7.20
21358;PMS7003;13506;50.852;20.632;2023-11-18T07:44:39;16.00;14.60;7.40
21358;PMS7003;13506;50.852;20.632;2023-11-18T07:47:11;14.00;13.80;6.40
21358;PMS7003;13506;50.852;20.632;2023-11-18T07:49:41;13.00;13.00;5.80
21358;PMS7003;13506;50.852;20.632;2023-11-18T07:52:11;16.40;16.40;9.20
21358;PMS7003;13506;50.852;20.632;2023-11-18T07:54:39;15.40;15.40;9.40
21358;PMS7003;13506;50.852;20.632;2023-11-18T07:57:08;18.80;17.40;9.40
21358;PMS7003;13506;50.852;20.632;2023-11-18T07:59:37;20.80;16.00;9.60
21358;PMS7003;13506;50.852;20.632;2023-11-18T08:02:05;22.60;19.80;10.80
21358;PMS7003;13506;50.852;20.632;2023-11-18T08:04:37;18.20;15.20;9.60
21358;PMS7003;13506;50.852;20.632;2023-11-18T08:07:07;15.60;13.60;7.20
21358;PMS7003;13506;50.852;20.632;2023-11-18T08:09:36;15.60;13.40;8.80
21358;PMS7003;13506;50.852;20.632;2023-11-18T08:12:05;20.20;16.20;8.20
21358;PMS7003;13506;50.852;20.632;2023-11-18T08:14:35;16.20;16.00;7.00
21358;PMS7003;13506;50.852;20.632;2023-11-18T08:17:03;14.20;12.60;6.60
21358;PMS7003;13506;50.852;20.632;2023-11-18T08:19:31;12.20;11.20;5.20
21358;PMS7003;13506;50.852;20.632;2023-11-18T08:22:01;12.80;12.80;5.00
21358;PMS7003;13506;50.852;20.632;2023-11-18T08:24:30;10.00;10.00;4.80
21358;PMS7003;13506;50.852;20.632;2023-11-18T08:26:59;10.80;9.40;4.80
21358;PMS7003;13506;50.852;20.632;2023-11-18T08:29:28;8.60;8.60;3.80
21358;PMS7003;13506;50.852;20.632;2023-11-18T08:31:59;8.60;8.60;3.60
21358;PMS7003;13506;50.852;20.632;2023-11-18T08:34:27;13.00;12.20;5.40
21358;PMS7003;13506;50.852;20.632;2023-11-18T08:36:55;11.00;10.00;4.60
21358;PMS7003;13506;50.852;20.632;2023-11-18T08:39:25;14.20;10.80;6.20
21358;PMS7003;13506;50.852;20.632;2023-11-18T08:41:54;12.60;10.00;4.20
21358;PMS7003;13506;50.852;20.632;2023-11-18T08:44:23;9.80;9.80;4.00
21358;PMS7003;13506;50.852;20.632;2023-11-18T08:46:51;8.80;7.60;3.60
21358;PMS7003;13506;50.852;20.632;2023-11-18T08:49:20;12.80;11.60;4.40
21358;PMS7003;13506;50.852;20.632;2023-11-18T08:51:48;10.40;7.60;3.60
21358;PMS7003;13506;50.852;20.632;2023-11-18T08:54:21;14.60;13.00;7.00
21358;PMS7003;13506;50.852;20.632;2023-11-18T08:56:52;10.00;10.00;5.60
21358;PMS7003;13506;50.852;20.632;2023-11-18T08:59:23;10.60;10.60;4.00
21358;PMS7003;13506;50.852;20.632;2023-11-18T09:01:51;8.80;8.80;3.80
21358;PMS7003;13506;50.852;20.632;2023-11-18T09:04:21;8.40;7.20;3.60
21358;PMS7003;13506;50.852;20.632;2023-11-18T09:06:49;9.80;8.80;4.40
21358;PMS7003;13506;50.852;20.632;2023-11-18T09:09:19;14.20;12.00;6.00
21358;PMS7003;13506;50.852;20.632;2023-11-18T09:11:55;10.40;10.40;5.00
21358;PMS7003;13506;50.852;20.632;2023-11-18T09:14:23;15.20;11.40;6.00
21358;PMS7003;13506;50.852;20.632;2023-11-18T09:16:51;13.40;12.80;7.00
21358;PMS7003;13506;50.852;20.632;2023-11-18T09:19:22;14.00;10.60;5.80
21358;PMS7003;13506;50.852;20.632;2023-11-18T09:21:50;16.80;13.20;7.20
21358;PMS7003;13506;50.852;20.632;2023-11-18T09:24:20;13.60;12.40;5.80
21358;PMS7003;13506;50.852;20.632;2023-11-18T09:26:50;10.60;9.20;5.80
21358;PMS7003;13506;50.852;20.632;2023-11-18T09:29:23;10.20;10.00;4.00
21358;PMS7003;13506;50.852;20.632;2023-11-18T09:31:51;8.20;8.20;4.20
21358;PMS7003;13506;50.852;20.632;2023-11-18T09:34:19;9.20;9.20;5.00
21358;PMS7003;13506;50.852;20.632;2023-11-18T09:36:58;10.80;8.40;5.00
21358;PMS7003;13506;50.852;20.632;2023-11-18T09:39:26;10.20;10.20;5.80
21358;PMS7003;13506;50.852;20.632;2023-11-18T09:42:04;12.40;9.00;4.20
21358;PMS7003;13506;50.852;20.632;2023-11-18T09:44:36;10.20;7.40;4.00
21358;PMS7003;13506;50.852;20.632;2023-11-18T09:47:07;14.20;10.40;5.80
21358;PMS7003;13506;50.852;20.632;2023-11-18T09:49:39;6.60;6.00;2.80
21358;PMS7003;13506;50.852;20.632;2023-11-18T09:52:14;11.80;8.40;3.80
21358;PMS7003;13506;50.852;20.632;2023-11-18T09:54:49;11.00;10.20;4.00
21358;PMS7003;13506;50.852;20.632;2023-11-18T09:57:26;9.80;9.00;5.80
21358;PMS7003;13506;50.852;20.632;2023-11-18T10:00:03;7.60;7.00;2.80
21358;PMS7003;13506;50.852;20.632;2023-11-18T10:02:45;12.00;9.40;4.00
21358;PMS7003;13506;50.852;20.632;2023-11-18T10:05:16;9.60;8.80;4.40
21358;PMS7003;13506;50.852;20.632;2023-11-18T10:07:46;10.80;9.60;4.20
21358;PMS7003;13506;50.852;20.632;2023-11-18T10:10:15;9.60;9.60;3.00
21358;PMS7003;13506;50.852;20.632;2023-11-18T10:12:46;8.00;8.00;3.00
21358;PMS7003;13506;50.852;20.632;2023-11-18T10:15:20;10.00;9.80;4.00
21358;PMS7003;13506;50.852;20.632;2023-11-18T10:17:51;8.80;8.80;3.20
21358;PMS7003;13506;50.852;20.632;2023-11-18T10:20:42;12.20;7.00;3.20
21358;PMS7003;13506;50.852;20.632;2023-11-18T10:23:11;19.40;16.00;8.20
21358;PMS7003;13506;50.852;20.632;2023-11-18T10:25:45;13.40;10.00;4.80
21358;PMS7003;13506;50.852;20.632;2023-11-18T10:28:21;10.20;10.20;6.40
21358;PMS7003;13506;50.852;20.632;2023-11-18T10:30:51;9.60;9.60;4.00
21358;PMS7003;13506;50.852;20.632;2023-11-18T10:33:20;11.80;10.00;6.20
21358;PMS7003;13506;50.852;20.632;2023-11-18T10:35:52;12.00;11.80;7.20
21358;PMS7003;13506;50.852;20.632;2023-11-18T10:38:22;10.80;10.80;5.00
21358;PMS7003;13506;50.852;20.632;2023-11-18T10:40:55;11.00;9.80;6.20
21358;PMS7003;13506;50.852;20.632;2023-11-18T10:43:26;10.00;10.00;4.40
21358;PMS7003;13506;50.852;20.632;2023-11-18T10:46:06;10.20;9.60;4.00
21358;PMS7003;13506;50.852;20.632;2023-11-18T10:48:42;10.00;10.00;5.80
21358;PMS7003;13506;50.852;20.632;2023-11-18T10:51:13;12.40;10.20;4.40
21358;PMS7003;13506;50.852;20.632;2023-11-18T10:53:46;16.00;11.40;5.20
21358;PMS7003;13506;50.852;20.632;2023-11-18T10:56:24;10.40;10.40;4.80
21358;PMS7003;13506;50.852;20.632;2023-11-18T10:58:55;18.40;17.40;7.40
21358;PMS7003;13506;50.852;20.632;2023-11-18T11:01:29;18.80;15.20;8.20
21358;PMS7003;13506;50.852;20.632;2023-11-18T11:03:58;17.40;15.20;9.40
21358;PMS7003;13506;50.852;20.632;2023-11-18T11:06:30;11.60;10.20;5.40
21358;PMS7003;13506;50.852;20.632;2023-11-18T11:08:59;14.80;10.20;5.80
21358;PMS7003;13506;50.852;20.632;2023-11-18T11:11:37;17.20;15.40;7.80
21358;PMS7003;13506;50.852;20.632;2023-11-18T11:14:12;12.60;10.40;5.80
21358;PMS7003;13506;50.852;20.632;2023-11-18T11:16:47;11.40;11.40;6.40
21358;PMS7003;13506;50.852;20.632;2023-11-18T11:19:20;13.60;10.20;5.00
21358;PMS7003;13506;50.852;20.632;2023-11-18T11:22:00;15.20;11.60;7.00
21358;PMS7003;13506;50.852;20.632;2023-11-18T11:24:38;20.40;15.60;8.20
21358;PMS7003;13506;50.852;20.632;2023-11-18T11:27:17;18.80;15.40;8.60
21358;PMS7003;13506;50.852;20.632;2023-11-18T11:30:02;17.80;15.00;6.60
21358;PMS7003;13506;50.852;20.632;2023-11-18T11:32:43;21.80;18.00;11.60
21358;PMS7003;13506;50.852;20.632;2023-11-18T11:35:19;17.00;15.20;8.80
21358;PMS7003;13506;50.852;20.632;2023-11-18T11:37:52;12.20;12.20;5.40
21358;PMS7003;13506;50.852;20.632;2023-11-18T11:40:28;8.00;7.60;4.00
21358;PMS7003;13506;50.852;20.632;2023-11-18T11:42:58;14.20;12.20;6.20
21358;PMS7003;13506;50.852;20.632;2023-11-18T11:45:30;12.80;12.00;4.40
21358;PMS7003;13506;50.852;20.632;2023-11-18T11:48:02;9.60;9.40;4.00
21358;PMS7003;13506;50.852;20.632;2023-11-18T11:50:55;15.00;13.00;7.00
21358;PMS7003;13506;50.852;20.632;2023-11-18T11:53:42;15.80;13.40;7.80
21358;PMS7003;13506;50.852;20.632;2023-11-18T11:56:14;11.80;11.80;6.80
21358;PMS7003;13506;50.852;20.632;2023-11-18T11:58:47;16.60;15.40;7.20
21358;PMS7003;13506;50.852;20.632;2023-11-18T12:01:24;14.40;13.00;6.40
21358;PMS7003;13506;50.852;20.632;2023-11-18T12:04:00;15.40;12.40;6.00
21358;PMS7003;13506;50.852;20.632;2023-11-18T12:06:33;11.60;11.40;5.80
21358;PMS7003;13506;50.852;20.632;2023-11-18T12:09:08;13.40;12.40;6.40
21358;PMS7003;13506;50.852;20.632;2023-11-18T12:11:37;7.20;7.20;4.00
21358;PMS7003;13506;50.852;20.632;2023-11-18T12:14:11;9.00;7.20;3.80
21358;PMS7003;13506;50.852;20.632;2023-11-18T12:16:58;9.80;9.00;4.00
21358;PMS7003;13506;50.852;20.632;2023-11-18T12:19:40;9.00;9.00;4.00
21358;PMS7003;13506;50.852;20.632;2023-11-18T12:22:14;10.00;9.20;3.80
21358;PMS7003;13506;50.852;20.632;2023-11-18T12:28:11;10.80;10.80;4.20
21358;PMS7003;13506;50.852;20.632;2023-11-18T12:30:43;12.60;10.00;4.20
21358;PMS7003;13506;50.852;20.632;2023-11-18T12:39:56;9.40;8.80;3.60
21358;PMS7003;13506;50.852;20.632;2023-11-18T12:43:00;12.20;10.00;4.00
21358;PMS7003;13506;50.852;20.632;2023-11-18T12:48:42;7.40;7.40;4.00
21358;PMS7003;13506;50.852;20.632;2023-11-18T12:51:12;10.80;10.80;4.80
21358;PMS7003;13506;50.852;20.632;2023-11-18T12:53:51;12.00;10.00;4.00
21358;PMS7003;13506;50.852;20.632;2023-11-18T12:56:20;11.80;11.60;6.60
21358;PMS7003;13506;50.852;20.632;2023-11-18T12:58:50;10.00;9.40;5.80
21358;PMS7003;13506;50.852;20.632;2023-11-18T13:01:19;12.20;10.80;4.20
21358;PMS7003;13506;50.852;20.632;2023-11-18T13:03:49;10.00;10.00;5.40
21358;PMS7003;13506;50.852;20.632;2023-11-18T13:06:19;11.00;7.00;3.60
21358;PMS7003;13506;50.852;20.632;2023-11-18T13:08:52;7.60;7.60;3.60
21358;PMS7003;13506;50.852;20.632;2023-11-18T13:11:22;9.20;9.20;3.80
21358;PMS7003;13506;50.852;20.632;2023-11-18T13:13:51;11.20;9.80;4.00
21358;PMS7003;13506;50.852;20.632;2023-11-18T13:16:19;9.40;9.40;4.00
21358;PMS7003;13506;50.852;20.632;2023-11-18T13:18:48;9.80;8.20;5.20
21358;PMS7003;13506;50.852;20.632;2023-11-18T13:21:17;12.80;11.60;7.00
21358;PMS7003;13506;50.852;20.632;2023-11-18T13:23:48;9.00;7.40;3.80
21358;PMS7003;13506;50.852;20.632;2023-11-18T13:26:19;16.80;16.20;6.80
21358;PMS7003;13506;50.852;20.632;2023-11-18T13:28:48;15.00;11.00;6.60
21358;PMS7003;13506;50.852;20.632;2023-11-18T13:31:16;18.80;14.80;8.80
21358;PMS7003;13506;50.852;20.632;2023-11-18T13:33:46;19.00;17.20;10.40
21358;PMS7003;13506;50.852;20.632;2023-11-18T13:36:15;17.40;15.20;7.80
21358;PMS7003;13506;50.852;20.632;2023-11-18T13:38:43;13.00;12.80;7.00
21358;PMS7003;13506;50.852;20.632;2023-11-18T13:41:29;12.60;12.60;7.00
21358;PMS7003;13506;50.852;20.632;2023-11-18T13:43:57;16.40;12.60;6.00
21358;PMS7003;13506;50.852;20.632;2023-11-18T13:46:26;16.00;13.20;6.80
21358;PMS7003;13506;50.852;20.632;2023-11-18T13:48:54;17.60;12.00;5.60
21358;PMS7003;13506;50.852;20.632;2023-11-18T13:51:24;9.80;9.80;5.40
21358;PMS7003;13506;50.852;20.632;2023-11-18T13:53:53;11.20;11.20;4.20
21358;PMS7003;13506;50.852;20.632;2023-11-18T13:56:21;14.60;12.80;5.80
21358;PMS7003;13506;50.852;20.632;2023-11-18T13:58:54;14.00;12.20;5.60
21358;PMS7003;13506;50.852;20.632;2023-11-18T14:01:22;15.60;13.00;4.40
21358;PMS7003;13506;50.852;20.632;2023-11-18T14:03:53;9.40;9.40;4.00
21358;PMS7003;13506;50.852;20.632;2023-11-18T14:06:27;9.40;9.40;4.00
21358;PMS7003;13506;50.852;20.632;2023-11-18T14:08:55;13.20;10.40;4.40
21358;PMS7003;13506;50.852;20.632;2023-11-18T14:11:24;11.40;11.40;6.00
21358;PMS7003;13506;50.852;20.632;2023-11-18T14:13:52;9.60;9.00;4.00
21358;PMS7003;13506;50.852;20.632;2023-11-18T14:16:24;10.60;10.60;6.00
21358;PMS7003;13506;50.852;20.632;2023-11-18T14:18:52;11.40;7.00;4.00
21358;PMS7003;13506;50.852;20.632;2023-11-18T14:21:20;13.40;10.00;5.40
21358;PMS7003;13506;50.852;20.632;2023-11-18T14:23:49;11.00;9.80;4.60
21358;PMS7003;13506;50.852;20.632;2023-11-18T14:26:16;11.60;10.00;4.00